Current | Forecast
Updated: 11:00 PM MSK on April 30, 2017
Observed at Vostochny, Russia
Temperature 50°F
Humidity 50%
Dew Point 32°F
Wind North at 0 mph
Pressure 30.39 in (Steady)
Conditions Clear
Visibility 5.0 miles
UV N/A
Clouds
Yesterday's Maximum 75°F
Yesterday's Minimum 46°F approx.
Yesterday's Heating Degree Days 4 approx.
Sunrise4:09 AM MSK
Sunset7:18 PM MSK
Moon Rise7:23 AM MSK
Moon Set11:54 PM MSK
Moon PhaseMoon Phase
Waxing Crescent
Raw METARMETAR UWLW 302000Z 00000MPS 8000 NSC 10/00 Q1029 R20/CLRD60 NOSIG RMK QFE766


Monday
. High: 73° F.
Tuesday
. High: 71° F.
Wednesday
. High: 59° F.
Thursday
. High: 59° F.
Friday
. High: 59° F.
Saturday
. High: 53° F.
Sunday
. High: 62° F.
Monday
. High: 68° F.

Units: English | Metric

Find the Weather for any City, State or Zipcode, or Country:

U.S. State List | Severe Weather | Tropical Storms | Ski Conditions
United States | Canada | Central America | South America | Asia | Europe | Australia | Africa | Islands

Weather Underground

© Copyright 2017
The Weather Company, LLC